sensor_id;sensor_type;location;lat;lon;timestamp;P1;durP1;ratioP1;P2;durP2;ratioP2
2848;SDS011;59355;52.416;13.412;2022-11-10T00:01:49;4.10;;;3.47;;
2848;SDS011;59355;52.416;13.412;2022-11-10T00:04:14;6.50;;;4.10;;
2848;SDS011;59355;52.416;13.412;2022-11-10T00:06:39;3.40;;;3.10;;
2848;SDS011;59355;52.416;13.412;2022-11-10T00:09:05;3.57;;;3.27;;
2848;SDS011;59355;52.416;13.412;2022-11-10T00:11:31;5.07;;;2.93;;
2848;SDS011;59355;52.416;13.412;2022-11-10T00:13:56;5.80;;;3.37;;
2848;SDS011;59355;52.416;13.412;2022-11-10T00:16:40;4.30;;;3.20;;
2848;SDS011;59355;52.416;13.412;2022-11-10T00:19:24;5.60;;;2.93;;
2848;SDS011;59355;52.416;13.412;2022-11-10T00:21:49;6.03;;;3.20;;
2848;SDS011;59355;52.416;13.412;2022-11-10T00:24:14;3.80;;;2.97;;
2848;SDS011;59355;52.416;13.412;2022-11-10T00:26:40;3.93;;;3.13;;
2848;SDS011;59355;52.416;13.412;2022-11-10T00:29:05;5.03;;;3.23;;
2848;SDS011;59355;52.416;13.412;2022-11-10T00:31:30;3.33;;;3.00;;
2848;SDS011;59355;52.416;13.412;2022-11-10T00:33:56;3.97;;;2.87;;
2848;SDS011;59355;52.416;13.412;2022-11-10T00:36:22;6.10;;;2.97;;
2848;SDS011;59355;52.416;13.412;2022-11-10T00:38:51;3.83;;;2.70;;
2848;SDS011;59355;52.416;13.412;2022-11-10T00:41:16;3.87;;;3.30;;
2848;SDS011;59355;52.416;13.412;2022-11-10T00:43:41;5.53;;;3.60;;
2848;SDS011;59355;52.416;13.412;2022-11-10T00:46:07;3.70;;;3.00;;
2848;SDS011;59355;52.416;13.412;2022-11-10T00:48:32;3.60;;;2.90;;
2848;SDS011;59355;52.416;13.412;2022-11-10T00:50:57;3.70;;;3.07;;
2848;SDS011;59355;52.416;13.412;2022-11-10T00:53:23;6.00;;;2.97;;
2848;SDS011;59355;52.416;13.412;2022-11-10T00:55:48;4.33;;;3.03;;
2848;SDS011;59355;52.416;13.412;2022-11-10T00:58:13;7.20;;;2.80;;
2848;SDS011;59355;52.416;13.412;2022-11-10T01:00:39;3.43;;;2.70;;
2848;SDS011;59355;52.416;13.412;2022-11-10T01:03:05;6.87;;;3.90;;
2848;SDS011;59355;52.416;13.412;2022-11-10T01:05:30;4.83;;;2.90;;
2848;SDS011;59355;52.416;13.412;2022-11-10T01:07:56;3.67;;;2.83;;
2848;SDS011;59355;52.416;13.412;2022-11-10T01:10:22;3.40;;;2.90;;
2848;SDS011;59355;52.416;13.412;2022-11-10T01:12:47;4.03;;;3.30;;
2848;SDS011;59355;52.416;13.412;2022-11-10T01:15:12;3.40;;;2.93;;
2848;SDS011;59355;52.416;13.412;2022-11-10T01:17:38;3.90;;;3.47;;
2848;SDS011;59355;52.416;13.412;2022-11-10T01:20:03;4.17;;;2.67;;
2848;SDS011;59355;52.416;13.412;2022-11-10T01:22:32;4.43;;;2.90;;
2848;SDS011;59355;52.416;13.412;2022-11-10T01:24:57;11.10;;;3.40;;
2848;SDS011;59355;52.416;13.412;2022-11-10T01:27:22;3.10;;;2.60;;
2848;SDS011;59355;52.416;13.412;2022-11-10T01:29:48;3.27;;;2.97;;
2848;SDS011;59355;52.416;13.412;2022-11-10T01:32:13;6.60;;;3.57;;
2848;SDS011;59355;52.416;13.412;2022-11-10T01:34:38;5.50;;;2.77;;
2848;SDS011;59355;52.416;13.412;2022-11-10T01:37:04;11.77;;;2.77;;
2848;SDS011;59355;52.416;13.412;2022-11-10T01:39:29;4.20;;;2.30;;
2848;SDS011;59355;52.416;13.412;2022-11-10T01:41:54;3.60;;;2.60;;
2848;SDS011;59355;52.416;13.412;2022-11-10T01:44:21;4.00;;;2.67;;
2848;SDS011;59355;52.416;13.412;2022-11-10T01:46:47;5.00;;;2.80;;
2848;SDS011;59355;52.416;13.412;2022-11-10T01:49:13;6.97;;;2.97;;
2848;SDS011;59355;52.416;13.412;2022-11-10T01:51:41;6.20;;;3.63;;
2848;SDS011;59355;52.416;13.412;2022-11-10T01:54:12;4.07;;;2.53;;
2848;SDS011;59355;52.416;13.412;2022-11-10T01:56:42;9.20;;;2.53;;
2848;SDS011;59355;52.416;13.412;2022-11-10T01:59:11;3.00;;;2.70;;
2848;SDS011;59355;52.416;13.412;2022-11-10T02:01:38;4.20;;;3.27;;
2848;SDS011;59355;52.416;13.412;2022-11-10T02:04:05;6.93;;;3.40;;
2848;SDS011;59355;52.416;13.412;2022-11-10T02:06:33;5.20;;;2.50;;
2848;SDS011;59355;52.416;13.412;2022-11-10T02:09:01;5.50;;;4.43;;
2848;SDS011;59355;52.416;13.412;2022-11-10T02:11:26;4.33;;;2.57;;
2848;SDS011;59355;52.416;13.412;2022-11-10T02:13:52;4.57;;;2.73;;
2848;SDS011;59355;52.416;13.412;2022-11-10T02:16:18;4.00;;;2.53;;
2848;SDS011;59355;52.416;13.412;2022-11-10T02:18:43;5.63;;;3.10;;
2848;SDS011;59355;52.416;13.412;2022-11-10T02:21:08;9.20;;;3.00;;
2848;SDS011;59355;52.416;13.412;2022-11-10T02:25:59;6.67;;;3.80;;
2848;SDS011;59355;52.416;13.412;2022-11-10T02:28:26;4.77;;;3.00;;
2848;SDS011;59355;52.416;13.412;2022-11-10T02:30:52;4.03;;;2.97;;
2848;SDS011;59355;52.416;13.412;2022-11-10T02:33:18;5.50;;;4.67;;
2848;SDS011;59355;52.416;13.412;2022-11-10T02:35:44;5.43;;;3.00;;
2848;SDS011;59355;52.416;13.412;2022-11-10T02:38:10;4.90;;;2.67;;
2848;SDS011;59355;52.416;13.412;2022-11-10T02:40:35;4.10;;;2.90;;
2848;SDS011;59355;52.416;13.412;2022-11-10T02:43:02;7.60;;;2.77;;
2848;SDS011;59355;52.416;13.412;2022-11-10T02:45:28;4.10;;;2.40;;
2848;SDS011;59355;52.416;13.412;2022-11-10T02:47:54;3.70;;;2.60;;
2848;SDS011;59355;52.416;13.412;2022-11-10T02:50:19;3.50;;;2.43;;
2848;SDS011;59355;52.416;13.412;2022-11-10T02:52:44;4.40;;;3.40;;
2848;SDS011;59355;52.416;13.412;2022-11-10T02:55:09;3.17;;;2.87;;
2848;SDS011;59355;52.416;13.412;2022-11-10T02:57:36;3.63;;;3.00;;
2848;SDS011;59355;52.416;13.412;2022-11-10T03:00:01;4.33;;;2.47;;
2848;SDS011;59355;52.416;13.412;2022-11-10T03:02:28;6.63;;;3.30;;
2848;SDS011;59355;52.416;13.412;2022-11-10T03:04:53;6.77;;;3.13;;
2848;SDS011;59355;52.416;13.412;2022-11-10T03:07:18;5.63;;;2.70;;
2848;SDS011;59355;52.416;13.412;2022-11-10T03:09:43;7.57;;;3.13;;
2848;SDS011;59355;52.416;13.412;2022-11-10T03:12:09;4.70;;;3.37;;
2848;SDS011;59355;52.416;13.412;2022-11-10T03:14:34;4.57;;;3.27;;
2848;SDS011;59355;52.416;13.412;2022-11-10T03:16:59;4.80;;;2.93;;
2848;SDS011;59355;52.416;13.412;2022-11-10T03:19:25;7.80;;;3.87;;
2848;SDS011;59355;52.416;13.412;2022-11-10T03:21:50;4.90;;;2.90;;
2848;SDS011;59355;52.416;13.412;2022-11-10T03:24:15;5.83;;;3.00;;
2848;SDS011;59355;52.416;13.412;2022-11-10T03:26:41;7.13;;;3.70;;
2848;SDS011;59355;52.416;13.412;2022-11-10T03:29:06;4.53;;;2.57;;
2848;SDS011;59355;52.416;13.412;2022-11-10T03:31:31;4.73;;;3.13;;
2848;SDS011;59355;52.416;13.412;2022-11-10T03:33:56;3.67;;;2.80;;
2848;SDS011;59355;52.416;13.412;2022-11-10T03:36:22;8.40;;;3.53;;
2848;SDS011;59355;52.416;13.412;2022-11-10T03:38:47;6.87;;;3.30;;
2848;SDS011;59355;52.416;13.412;2022-11-10T03:41:12;5.30;;;3.00;;
2848;SDS011;59355;52.416;13.412;2022-11-10T03:43:38;5.87;;;3.43;;
2848;SDS011;59355;52.416;13.412;2022-11-10T03:46:03;5.33;;;3.17;;
2848;SDS011;59355;52.416;13.412;2022-11-10T03:48:28;4.93;;;3.33;;
2848;SDS011;59355;52.416;13.412;2022-11-10T03:50:54;5.00;;;3.20;;
2848;SDS011;59355;52.416;13.412;2022-11-10T03:53:19;6.83;;;3.10;;
2848;SDS011;59355;52.416;13.412;2022-11-10T03:55:44;8.73;;;3.13;;
2848;SDS011;59355;52.416;13.412;2022-11-10T03:58:10;5.33;;;3.70;;
2848;SDS011;59355;52.416;13.412;2022-11-10T04:00:35;8.23;;;3.20;;
2848;SDS011;59355;52.416;13.412;2022-11-10T04:03:00;3.20;;;2.67;;
2848;SDS011;59355;52.416;13.412;2022-11-10T04:05:25;5.47;;;3.60;;
2848;SDS011;59355;52.416;13.412;2022-11-10T04:08:13;4.63;;;2.90;;
2848;SDS011;59355;52.416;13.412;2022-11-10T04:10:58;5.47;;;3.77;;
2848;SDS011;59355;52.416;13.412;2022-11-10T04:13:23;7.70;;;3.87;;
2848;SDS011;59355;52.416;13.412;2022-11-10T04:16:07;11.70;;;3.83;;
2848;SDS011;59355;52.416;13.412;2022-11-10T04:18:33;11.37;;;4.33;;
2848;SDS011;59355;52.416;13.412;2022-11-10T04:20:59;7.47;;;3.40;;
2848;SDS011;59355;52.416;13.412;2022-11-10T04:23:26;6.17;;;3.93;;
2848;SDS011;59355;52.416;13.412;2022-11-10T04:25:53;8.47;;;4.27;;
2848;SDS011;59355;52.416;13.412;2022-11-10T04:28:49;5.23;;;2.97;;
2848;SDS011;59355;52.416;13.412;2022-11-10T04:31:15;4.10;;;3.10;;
2848;SDS011;59355;52.416;13.412;2022-11-10T04:33:42;6.77;;;3.87;;
2848;SDS011;59355;52.416;13.412;2022-11-10T04:36:08;7.50;;;3.60;;
2848;SDS011;59355;52.416;13.412;2022-11-10T04:38:34;4.50;;;3.77;;
2848;SDS011;59355;52.416;13.412;2022-11-10T04:41:00;4.93;;;3.97;;
2848;SDS011;59355;52.416;13.412;2022-11-10T04:43:25;5.70;;;3.90;;
2848;SDS011;59355;52.416;13.412;2022-11-10T04:45:51;8.70;;;3.30;;
2848;SDS011;59355;52.416;13.412;2022-11-10T04:48:16;8.50;;;3.50;;
2848;SDS011;59355;52.416;13.412;2022-11-10T04:50:42;5.67;;;3.40;;
2848;SDS011;59355;52.416;13.412;2022-11-10T04:53:07;7.60;;;4.07;;
2848;SDS011;59355;52.416;13.412;2022-11-10T04:55:33;5.00;;;3.60;;
2848;SDS011;59355;52.416;13.412;2022-11-10T04:57:58;5.17;;;2.80;;
2848;SDS011;59355;52.416;13.412;2022-11-10T05:00:24;5.67;;;3.97;;
2848;SDS011;59355;52.416;13.412;2022-11-10T05:05:50;5.20;;;3.63;;
2848;SDS011;59355;52.416;13.412;2022-11-10T05:08:15;5.50;;;4.10;;
2848;SDS011;59355;52.416;13.412;2022-11-10T05:10:41;4.43;;;3.17;;
2848;SDS011;59355;52.416;13.412;2022-11-10T05:13:06;6.43;;;4.27;;
2848;SDS011;59355;52.416;13.412;2022-11-10T05:15:31;6.50;;;3.97;;
2848;SDS011;59355;52.416;13.412;2022-11-10T05:17:57;5.03;;;3.60;;
2848;SDS011;59355;52.416;13.412;2022-11-10T05:20:23;12.50;;;3.77;;
2848;SDS011;59355;52.416;13.412;2022-11-10T05:22:49;5.67;;;3.77;;
2848;SDS011;59355;52.416;13.412;2022-11-10T05:25:34;10.00;;;4.00;;
2848;SDS011;59355;52.416;13.412;2022-11-10T05:28:01;4.83;;;4.17;;
2848;SDS011;59355;52.416;13.412;2022-11-10T05:30:26;8.83;;;4.73;;
2848;SDS011;59355;52.416;13.412;2022-11-10T05:32:51;6.27;;;3.80;;
2848;SDS011;59355;52.416;13.412;2022-11-10T05:35:17;8.00;;;4.37;;
2848;SDS011;59355;52.416;13.412;2022-11-10T05:37:42;5.17;;;4.63;;
2848;SDS011;59355;52.416;13.412;2022-11-10T05:40:07;7.97;;;4.30;;
2848;SDS011;59355;52.416;13.412;2022-11-10T05:42:33;5.17;;;4.53;;
2848;SDS011;59355;52.416;13.412;2022-11-10T05:44:58;9.47;;;4.67;;
2848;SDS011;59355;52.416;13.412;2022-11-10T05:47:23;8.63;;;4.80;;
2848;SDS011;59355;52.416;13.412;2022-11-10T05:49:49;10.20;;;4.30;;
2848;SDS011;59355;52.416;13.412;2022-11-10T05:52:14;9.13;;;5.10;;
2848;SDS011;59355;52.416;13.412;2022-11-10T05:54:39;6.73;;;4.60;;
2848;SDS011;59355;52.416;13.412;2022-11-10T05:57:05;9.70;;;4.90;;
2848;SDS011;59355;52.416;13.412;2022-11-10T05:59:30;11.13;;;5.00;;
2848;SDS011;59355;52.416;13.412;2022-11-10T06:01:55;7.20;;;4.80;;
2848;SDS011;59355;52.416;13.412;2022-11-10T06:04:21;6.23;;;4.90;;
2848;SDS011;59355;52.416;13.412;2022-11-10T06:06:46;4.90;;;4.37;;
2848;SDS011;59355;52.416;13.412;2022-11-10T06:09:11;5.90;;;4.37;;
2848;SDS011;59355;52.416;13.412;2022-11-10T06:11:37;4.53;;;3.87;;
2848;SDS011;59355;52.416;13.412;2022-11-10T06:14:02;8.53;;;4.27;;
2848;SDS011;59355;52.416;13.412;2022-11-10T06:16:28;9.03;;;4.57;;
2848;SDS011;59355;52.416;13.412;2022-11-10T06:18:53;8.27;;;4.70;;
2848;SDS011;59355;52.416;13.412;2022-11-10T06:21:19;9.20;;;5.17;;
2848;SDS011;59355;52.416;13.412;2022-11-10T06:23:44;7.50;;;4.80;;
2848;SDS011;59355;52.416;13.412;2022-11-10T06:26:09;5.40;;;4.63;;
2848;SDS011;59355;52.416;13.412;2022-11-10T06:28:34;10.50;;;5.50;;
2848;SDS011;59355;52.416;13.412;2022-11-10T06:31:00;10.43;;;4.90;;
2848;SDS011;59355;52.416;13.412;2022-11-10T06:33:25;5.70;;;4.00;;
2848;SDS011;59355;52.416;13.412;2022-11-10T06:35:50;5.67;;;5.00;;
2848;SDS011;59355;52.416;13.412;2022-11-10T06:38:17;9.73;;;4.90;;
2848;SDS011;59355;52.416;13.412;2022-11-10T06:40:42;10.17;;;5.23;;
2848;SDS011;59355;52.416;13.412;2022-11-10T06:43:07;9.70;;;5.33;;
2848;SDS011;59355;52.416;13.412;2022-11-10T06:45:32;10.53;;;5.23;;
2848;SDS011;59355;52.416;13.412;2022-11-10T06:47:58;9.00;;;5.07;;
2848;SDS011;59355;52.416;13.412;2022-11-10T06:50:25;7.67;;;4.87;;
2848;SDS011;59355;52.416;13.412;2022-11-10T06:52:54;8.90;;;4.80;;
2848;SDS011;59355;52.416;13.412;2022-11-10T06:55:19;7.50;;;4.20;;
2848;SDS011;59355;52.416;13.412;2022-11-10T06:57:45;6.17;;;4.50;;
2848;SDS011;59355;52.416;13.412;2022-11-10T07:00:10;10.13;;;4.97;;
2848;SDS011;59355;52.416;13.412;2022-11-10T07:02:36;9.17;;;4.93;;
2848;SDS011;59355;52.416;13.412;2022-11-10T07:05:01;5.03;;;4.53;;
2848;SDS011;59355;52.416;13.412;2022-11-10T07:07:26;9.70;;;4.93;;
2848;SDS011;59355;52.416;13.412;2022-11-10T07:09:52;4.93;;;4.27;;
2848;SDS011;59355;52.416;13.412;2022-11-10T07:12:17;7.13;;;4.90;;
2848;SDS011;59355;52.416;13.412;2022-11-10T07:14:43;7.40;;;4.60;;
2848;SDS011;59355;52.416;13.412;2022-11-10T07:17:08;9.33;;;4.30;;
2848;SDS011;59355;52.416;13.412;2022-11-10T07:19:34;12.43;;;4.63;;
2848;SDS011;59355;52.416;13.412;2022-11-10T07:21:59;7.93;;;4.60;;
2848;SDS011;59355;52.416;13.412;2022-11-10T07:24:24;8.90;;;4.20;;
2848;SDS011;59355;52.416;13.412;2022-11-10T07:26:50;7.70;;;4.73;;
2848;SDS011;59355;52.416;13.412;2022-11-10T07:29:15;8.70;;;4.47;;
2848;SDS011;59355;52.416;13.412;2022-11-10T07:31:41;7.43;;;4.00;;
2848;SDS011;59355;52.416;13.412;2022-11-10T07:34:06;13.13;;;4.50;;
2848;SDS011;59355;52.416;13.412;2022-11-10T07:36:31;8.23;;;4.27;;
2848;SDS011;59355;52.416;13.412;2022-11-10T07:38:56;9.57;;;4.10;;
2848;SDS011;59355;52.416;13.412;2022-11-10T07:41:22;7.63;;;4.40;;
2848;SDS011;59355;52.416;13.412;2022-11-10T07:43:47;5.87;;;4.17;;
2848;SDS011;59355;52.416;13.412;2022-11-10T07:46:12;7.50;;;4.30;;
2848;SDS011;59355;52.416;13.412;2022-11-10T07:48:38;6.40;;;4.10;;
2848;SDS011;59355;52.416;13.412;2022-11-10T07:51:03;8.90;;;4.47;;
2848;SDS011;59355;52.416;13.412;2022-11-10T07:53:28;6.90;;;4.80;;
2848;SDS011;59355;52.416;13.412;2022-11-10T07:55:54;7.50;;;4.30;;
2848;SDS011;59355;52.416;13.412;2022-11-10T07:58:21;5.77;;;4.30;;
2848;SDS011;59355;52.416;13.412;2022-11-10T08:00:47;5.90;;;4.10;;
2848;SDS011;59355;52.416;13.412;2022-11-10T08:03:13;10.00;;;5.73;;
2848;SDS011;59355;52.416;13.412;2022-11-10T08:05:42;9.17;;;4.90;;
2848;SDS011;59355;52.416;13.412;2022-11-10T08:08:08;7.67;;;4.73;;
2848;SDS011;59355;52.416;13.412;2022-11-10T08:10:33;10.47;;;4.80;;
2848;SDS011;59355;52.416;13.412;2022-11-10T08:13:00;10.97;;;4.50;;
2848;SDS011;59355;52.416;13.412;2022-11-10T08:15:27;8.63;;;5.53;;
2848;SDS011;59355;52.416;13.412;2022-11-10T08:17:57;5.53;;;3.93;;
2848;SDS011;59355;52.416;13.412;2022-11-10T08:20:26;11.60;;;4.40;;
2848;SDS011;59355;52.416;13.412;2022-11-10T08:22:56;11.63;;;4.80;;
2848;SDS011;59355;52.416;13.412;2022-11-10T08:25:25;7.00;;;3.90;;
2848;SDS011;59355;52.416;13.412;2022-11-10T08:27:59;8.03;;;4.70;;
2848;SDS011;59355;52.416;13.412;2022-11-10T08:30:25;7.93;;;4.23;;
2848;SDS011;59355;52.416;13.412;2022-11-10T08:32:55;7.33;;;4.33;;
2848;SDS011;59355;52.416;13.412;2022-11-10T08:35:21;8.20;;;3.90;;
2848;SDS011;59355;52.416;13.412;2022-11-10T08:37:47;9.63;;;4.07;;
2848;SDS011;59355;52.416;13.412;2022-11-10T08:40:12;9.20;;;4.07;;
2848;SDS011;59355;52.416;13.412;2022-11-10T08:42:39;13.30;;;4.70;;
2848;SDS011;59355;52.416;13.412;2022-11-10T08:45:04;9.30;;;4.50;;
2848;SDS011;59355;52.416;13.412;2022-11-10T08:47:30;7.27;;;3.87;;
2848;SDS011;59355;52.416;13.412;2022-11-10T08:49:55;8.70;;;4.33;;
2848;SDS011;59355;52.416;13.412;2022-11-10T08:52:20;6.90;;;3.60;;
2848;SDS011;59355;52.416;13.412;2022-11-10T08:54:46;7.50;;;3.63;;
2848;SDS011;59355;52.416;13.412;2022-11-10T08:57:11;12.20;;;4.20;;
2848;SDS011;59355;52.416;13.412;2022-11-10T08:59:36;6.53;;;4.10;;
2848;SDS011;59355;52.416;13.412;2022-11-10T09:02:02;7.07;;;4.13;;
2848;SDS011;59355;52.416;13.412;2022-11-10T09:04:27;9.43;;;4.07;;
2848;SDS011;59355;52.416;13.412;2022-11-10T09:06:52;7.87;;;3.90;;
2848;SDS011;59355;52.416;13.412;2022-11-10T09:09:21;7.20;;;4.83;;
2848;SDS011;59355;52.416;13.412;2022-11-10T09:11:47;8.80;;;4.70;;
2848;SDS011;59355;52.416;13.412;2022-11-10T09:14:13;6.10;;;4.90;;
2848;SDS011;59355;52.416;13.412;2022-11-10T09:16:38;10.23;;;4.87;;
2848;SDS011;59355;52.416;13.412;2022-11-10T09:19:03;8.43;;;4.10;;
2848;SDS011;59355;52.416;13.412;2022-11-10T09:21:28;6.77;;;4.40;;
2848;SDS011;59355;52.416;13.412;2022-11-10T09:23:54;6.73;;;4.87;;
2848;SDS011;59355;52.416;13.412;2022-11-10T09:26:19;5.90;;;4.13;;
2848;SDS011;59355;52.416;13.412;2022-11-10T09:28:44;8.17;;;5.00;;
2848;SDS011;59355;52.416;13.412;2022-11-10T09:31:10;16.37;;;5.53;;
2848;SDS011;59355;52.416;13.412;2022-11-10T09:33:35;8.00;;;5.03;;
2848;SDS011;59355;52.416;13.412;2022-11-10T09:36:00;7.23;;;3.80;;
2848;SDS011;59355;52.416;13.412;2022-11-10T09:38:26;8.13;;;5.17;;
2848;SDS011;59355;52.416;13.412;2022-11-10T09:43:22;7.53;;;5.00;;
2848;SDS011;59355;52.416;13.412;2022-11-10T09:45:52;9.93;;;5.07;;
2848;SDS011;59355;52.416;13.412;2022-11-10T09:48:21;8.97;;;4.87;;
2848;SDS011;59355;52.416;13.412;2022-11-10T09:53:22;9.43;;;4.63;;
2848;SDS011;59355;52.416;13.412;2022-11-10T09:55:51;9.30;;;5.20;;
2848;SDS011;59355;52.416;13.412;2022-11-10T09:58:17;7.13;;;4.30;;
2848;SDS011;59355;52.416;13.412;2022-11-10T10:00:48;11.97;;;4.53;;
2848;SDS011;59355;52.416;13.412;2022-11-10T10:03:16;5.87;;;4.13;;
2848;SDS011;59355;52.416;13.412;2022-11-10T10:05:48;12.30;;;5.10;;
2848;SDS011;59355;52.416;13.412;2022-11-10T10:08:22;8.37;;;4.50;;
2848;SDS011;59355;52.416;13.412;2022-11-10T10:10:51;8.90;;;4.50;;
2848;SDS011;59355;52.416;13.412;2022-11-10T10:16:16;11.77;;;5.33;;
2848;SDS011;59355;52.416;13.412;2022-11-10T10:21:53;13.17;;;4.40;;
2848;SDS011;59355;52.416;13.412;2022-11-10T10:24:39;10.20;;;4.40;;
2848;SDS011;59355;52.416;13.412;2022-11-10T10:27:07;6.67;;;3.80;;
2848;SDS011;59355;52.416;13.412;2022-11-10T10:29:42;8.37;;;4.40;;
2848;SDS011;59355;52.416;13.412;2022-11-10T10:32:12;8.57;;;4.97;;
2848;SDS011;59355;52.416;13.412;2022-11-10T10:34:43;8.20;;;4.80;;
2848;SDS011;59355;52.416;13.412;2022-11-10T10:37:52;5.63;;;4.40;;
2848;SDS011;59355;52.416;13.412;2022-11-10T10:40:12;8.97;;;4.30;;
2848;SDS011;59355;52.416;13.412;2022-11-10T10:42:39;7.13;;;3.80;;
2848;SDS011;59355;52.416;13.412;2022-11-10T10:47:40;6.90;;;4.13;;
2848;SDS011;59355;52.416;13.412;2022-11-10T10:55:36;12.70;;;4.10;;
2848;SDS011;59355;52.416;13.412;2022-11-10T10:58:16;10.53;;;4.43;;
2848;SDS011;59355;52.416;13.412;2022-11-10T11:00:45;9.90;;;4.60;;
2848;SDS011;59355;52.416;13.412;2022-11-10T11:03:18;5.87;;;3.63;;
2848;SDS011;59355;52.416;13.412;2022-11-10T11:05:58;9.30;;;3.80;;
2848;SDS011;59355;52.416;13.412;2022-11-10T11:08:24;9.60;;;3.80;;
2848;SDS011;59355;52.416;13.412;2022-11-10T11:10:50;5.97;;;3.50;;
2848;SDS011;59355;52.416;13.412;2022-11-10T11:13:23;7.17;;;3.90;;
2848;SDS011;59355;52.416;13.412;2022-11-10T11:15:56;7.50;;;4.37;;
2848;SDS011;59355;52.416;13.412;2022-11-10T11:18:21;8.83;;;4.00;;
2848;SDS011;59355;52.416;13.412;2022-11-10T11:20:59;9.60;;;3.90;;
2848;SDS011;59355;52.416;13.412;2022-11-10T11:23:33;6.07;;;3.53;;
2848;SDS011;59355;52.416;13.412;2022-11-10T11:26:43;7.03;;;3.70;;
2848;SDS011;59355;52.416;13.412;2022-11-10T11:29:26;8.07;;;4.17;;
2848;SDS011;59355;52.416;13.412;2022-11-10T11:32:08;8.40;;;4.03;;
2848;SDS011;59355;52.416;13.412;2022-11-10T11:40:30;4.60;;;3.30;;
2848;SDS011;59355;52.416;13.412;2022-11-10T11:45:43;7.80;;;3.03;;
2848;SDS011;59355;52.416;13.412;2022-11-10T11:48:22;12.10;;;4.37;;
2848;SDS011;59355;52.416;13.412;2022-11-10T11:50:54;9.00;;;4.50;;
2848;SDS011;59355;52.416;13.412;2022-11-10T12:07:22;9.83;;;3.30;;
2848;SDS011;59355;52.416;13.412;2022-11-10T12:10:02;4.80;;;3.53;;
2848;SDS011;59355;52.416;13.412;2022-11-10T12:12:54;9.40;;;3.10;;
2848;SDS011;59355;52.416;13.412;2022-11-10T12:15:40;5.50;;;2.90;;
2848;SDS011;59355;52.416;13.412;2022-11-10T12:18:27;7.43;;;3.37;;
2848;SDS011;59355;52.416;13.412;2022-11-10T12:23:26;12.17;;;4.03;;
2848;SDS011;59355;52.416;13.412;2022-11-10T12:26:07;6.53;;;3.40;;
2848;SDS011;59355;52.416;13.412;2022-11-10T12:28:40;5.87;;;3.40;;
2848;SDS011;59355;52.416;13.412;2022-11-10T12:31:09;5.10;;;3.30;;
2848;SDS011;59355;52.416;13.412;2022-11-10T12:33:43;10.23;;;3.50;;
2848;SDS011;59355;52.416;13.412;2022-11-10T12:36:12;6.23;;;2.87;;
2848;SDS011;59355;52.416;13.412;2022-11-10T12:41:11;8.97;;;3.17;;
2848;SDS011;59355;52.416;13.412;2022-11-10T12:43:56;9.50;;;3.23;;
2848;SDS011;59355;52.416;13.412;2022-11-10T12:46:27;7.67;;;3.37;;
2848;SDS011;59355;52.416;13.412;2022-11-10T12:49:00;8.60;;;4.03;;
2848;SDS011;59355;52.416;13.412;2022-11-10T12:51:40;6.07;;;3.57;;
2848;SDS011;59355;52.416;13.412;2022-11-10T12:54:13;10.80;;;4.23;;
2848;SDS011;59355;52.416;13.412;2022-11-10T12:56:47;4.33;;;2.90;;
2848;SDS011;59355;52.416;13.412;2022-11-10T13:01:44;5.87;;;3.10;;
2848;SDS011;59355;52.416;13.412;2022-11-10T13:04:14;7.47;;;3.40;;
2848;SDS011;59355;52.416;13.412;2022-11-10T13:06:47;9.10;;;2.87;;
2848;SDS011;59355;52.416;13.412;2022-11-10T13:09:24;6.23;;;3.13;;
2848;SDS011;59355;52.416;13.412;2022-11-10T13:12:02;8.07;;;3.30;;
2848;SDS011;59355;52.416;13.412;2022-11-10T13:14:30;5.03;;;3.00;;
2848;SDS011;59355;52.416;13.412;2022-11-10T13:16:56;8.67;;;3.50;;
2848;SDS011;59355;52.416;13.412;2022-11-10T13:24:24;6.77;;;3.10;;
2848;SDS011;59355;52.416;13.412;2022-11-10T13:26:51;4.40;;;2.97;;
2848;SDS011;59355;52.416;13.412;2022-11-10T13:29:33;7.17;;;3.60;;
2848;SDS011;59355;52.416;13.412;2022-11-10T13:34:32;9.17;;;3.10;;
2848;SDS011;59355;52.416;13.412;2022-11-10T13:36:58;5.83;;;3.40;;
2848;SDS011;59355;52.416;13.412;2022-11-10T13:39:25;11.23;;;3.90;;
2848;SDS011;59355;52.416;13.412;2022-11-10T13:44:35;7.63;;;3.10;;
2848;SDS011;59355;52.416;13.412;2022-11-10T13:52:34;6.07;;;3.33;;
2848;SDS011;59355;52.416;13.412;2022-11-10T13:58:22;6.73;;;2.60;;
2848;SDS011;59355;52.416;13.412;2022-11-10T14:00:52;5.60;;;2.73;;
2848;SDS011;59355;52.416;13.412;2022-11-10T14:06:10;4.83;;;3.17;;
2848;SDS011;59355;52.416;13.412;2022-11-10T14:08:40;6.97;;;3.67;;
2848;SDS011;59355;52.416;13.412;2022-11-10T14:11:11;8.43;;;3.20;;
2848;SDS011;59355;52.416;13.412;2022-11-10T14:13:51;7.73;;;2.70;;
2848;SDS011;59355;52.416;13.412;2022-11-10T14:16:21;5.50;;;3.27;;
2848;SDS011;59355;52.416;13.412;2022-11-10T14:21:43;8.60;;;2.90;;
2848;SDS011;59355;52.416;13.412;2022-11-10T14:24:27;6.50;;;3.17;;
2848;SDS011;59355;52.416;13.412;2022-11-10T14:26:58;7.93;;;3.50;;
2848;SDS011;59355;52.416;13.412;2022-11-10T14:29:33;7.27;;;3.13;;
2848;SDS011;59355;52.416;13.412;2022-11-10T14:32:02;7.00;;;3.20;;
2848;SDS011;59355;52.416;13.412;2022-11-10T14:34:30;6.90;;;3.90;;
2848;SDS011;59355;52.416;13.412;2022-11-10T14:36:56;7.37;;;2.73;;
2848;SDS011;59355;52.416;13.412;2022-11-10T14:39:26;11.00;;;3.40;;
2848;SDS011;59355;52.416;13.412;2022-11-10T14:41:53;6.00;;;3.47;;
2848;SDS011;59355;52.416;13.412;2022-11-10T14:44:21;8.63;;;2.80;;
2848;SDS011;59355;52.416;13.412;2022-11-10T14:46:47;6.37;;;3.20;;
2848;SDS011;59355;52.416;13.412;2022-11-10T14:49:13;7.07;;;3.60;;
2848;SDS011;59355;52.416;13.412;2022-11-10T14:51:45;11.53;;;3.90;;
2848;SDS011;59355;52.416;13.412;2022-11-10T14:54:10;7.90;;;3.43;;
2848;SDS011;59355;52.416;13.412;2022-11-10T14:56:36;13.37;;;3.63;;
2848;SDS011;59355;52.416;13.412;2022-11-10T14:59:04;5.40;;;3.17;;
2848;SDS011;59355;52.416;13.412;2022-11-10T15:01:34;7.80;;;3.87;;
2848;SDS011;59355;52.416;13.412;2022-11-10T15:04:03;6.00;;;3.63;;
2848;SDS011;59355;52.416;13.412;2022-11-10T15:06:29;13.10;;;3.70;;
2848;SDS011;59355;52.416;13.412;2022-11-10T15:08:55;5.43;;;3.60;;
2848;SDS011;59355;52.416;13.412;2022-11-10T15:11:31;6.10;;;3.20;;
2848;SDS011;59355;52.416;13.412;2022-11-10T15:13:58;8.47;;;3.50;;
2848;SDS011;59355;52.416;13.412;2022-11-10T15:16:27;6.03;;;3.40;;
2848;SDS011;59355;52.416;13.412;2022-11-10T15:18:54;8.30;;;4.00;;
2848;SDS011;59355;52.416;13.412;2022-11-10T15:21:22;4.33;;;3.70;;
2848;SDS011;59355;52.416;13.412;2022-11-10T15:23:52;9.27;;;4.13;;
2848;SDS011;59355;52.416;13.412;2022-11-10T15:26:20;6.57;;;3.73;;
2848;SDS011;59355;52.416;13.412;2022-11-10T15:28:51;5.63;;;3.30;;
2848;SDS011;59355;52.416;13.412;2022-11-10T15:31:21;13.87;;;5.07;;
2848;SDS011;59355;52.416;13.412;2022-11-10T15:33:51;7.87;;;3.33;;
2848;SDS011;59355;52.416;13.412;2022-11-10T15:38:43;4.77;;;4.10;;
2848;SDS011;59355;52.416;13.412;2022-11-10T15:41:10;6.23;;;3.53;;
2848;SDS011;59355;52.416;13.412;2022-11-10T15:43:36;6.17;;;3.40;;
2848;SDS011;59355;52.416;13.412;2022-11-10T15:46:07;5.87;;;2.77;;
2848;SDS011;59355;52.416;13.412;2022-11-10T15:48:39;7.63;;;3.93;;
2848;SDS011;59355;52.416;13.412;2022-11-10T15:51:08;9.70;;;3.73;;
2848;SDS011;59355;52.416;13.412;2022-11-10T15:53:39;7.63;;;4.27;;
2848;SDS011;59355;52.416;13.412;2022-11-10T15:56:06;8.23;;;4.30;;
2848;SDS011;59355;52.416;13.412;2022-11-10T15:58:33;15.47;;;5.07;;
2848;SDS011;59355;52.416;13.412;2022-11-10T16:00:58;8.40;;;4.67;;
2848;SDS011;59355;52.416;13.412;2022-11-10T16:03:25;7.07;;;4.00;;
2848;SDS011;59355;52.416;13.412;2022-11-10T16:05:51;8.00;;;4.30;;
2848;SDS011;59355;52.416;13.412;2022-11-10T16:08:17;7.03;;;3.70;;
2848;SDS011;59355;52.416;13.412;2022-11-10T16:10:45;5.43;;;3.50;;
2848;SDS011;59355;52.416;13.412;2022-11-10T16:13:13;8.77;;;4.63;;